Terminal Aerodrome Forecast
Issued by NWS

Home | Current Version | Previous Version | Graphics & Text | Print | Product List | Glossary On
Versions: 1 2 3 4 5 6 7 8 9 10 11 12 13 14 15 16
000
FTUS43 KICT 240534
TAFRSL
TAF
KRSL 240534Z 2406/2506 35009KT P6SM SCT110
     FM240900 33007KT P6SM SCT200
     FM242300 09006KT P6SM SKC
     FM250500 15008KT P6SM SCT250=

USA.gov is the U.S. government's official web portal to all federal, state and local government web resources and services.